KSMS

Sumter Airport

Sumter, South Carolina, USA
METAR KSMS 220355Z AUTO 00000KT 10SM CLR M02/M12 A3056 RMK AO2
Observed Flight Rules
Jan-22 @ 03:55 UTC (31 minutes ago) Visual Flight Rules
Visibility Clouds
10 miles
  • Clear skies
Temperatures Readings
Current -2°C / 28°F
Dewpoint -12°C / 10°F
Humidity 47%
Altimeter 30.56" Hg
Pressure 1034.91 hPa
Elevation 56
METAR KSMS 220355Z AUTO 00000KT 10SM CLR M02/M12 A3056 RMK AO2
Observed Flight Rules
Jan-22 @ 03:55 UTC
(31 minutes ago)
VFR
Clouds
  • Clear skies
Temperature Dewpoint
-2°C / 28°F -12°C / 10°F
Humidity Altimeter Pressure
47% 30.56" Hg 1034.91 hPa